createdAt,value
2022-11-08T00:01:43.710Z,5.00
2022-11-08T00:04:11.673Z,5.22
2022-11-08T00:06:38.702Z,5.28
2022-11-08T00:09:05.409Z,4.13
2022-11-08T00:11:32.143Z,5.15
2022-11-08T00:14:00.220Z,5.50
2022-11-08T00:16:27.684Z,4.35
2022-11-08T00:18:54.437Z,5.30
2022-11-08T00:21:21.163Z,6.15
2022-11-08T00:23:47.877Z,4.72
2022-11-08T00:26:14.614Z,6.22
2022-11-08T00:28:41.340Z,4.63
2022-11-08T00:31:09.401Z,4.15
2022-11-08T00:33:36.182Z,4.47
2022-11-08T00:36:04.149Z,5.80
2022-11-08T00:38:30.860Z,6.50
2022-11-08T00:40:57.843Z,6.45
2022-11-08T00:43:24.585Z,6.00
2022-11-08T00:45:51.436Z,4.13
2022-11-08T00:48:20.045Z,4.53
2022-11-08T00:50:46.925Z,6.53
2022-11-08T00:53:13.628Z,9.35
2022-11-08T00:55:40.347Z,5.63
2022-11-08T00:58:07.109Z,6.43
2022-11-08T01:00:33.845Z,5.93
2022-11-08T01:03:00.585Z,7.97
2022-11-08T01:05:28.793Z,4.70
2022-11-08T01:07:55.500Z,5.45
2022-11-08T01:10:22.256Z,5.38
2022-11-08T01:12:48.979Z,6.53
2022-11-08T01:15:15.878Z,6.53
2022-11-08T01:17:42.636Z,6.22
2022-11-08T01:20:09.960Z,6.20
2022-11-08T01:22:38.042Z,8.15
2022-11-08T01:25:05.292Z,5.32
2022-11-08T01:27:32.137Z,4.80
2022-11-08T01:29:58.849Z,6.53
2022-11-08T01:32:25.604Z,4.63
2022-11-08T01:34:52.347Z,4.50
2022-11-08T01:37:19.101Z,5.22
2022-11-08T01:39:47.177Z,5.88
2022-11-08T01:42:13.904Z,4.97
2022-11-08T01:44:56.942Z,5.20
2022-11-08T01:47:23.657Z,6.18
2022-11-08T01:49:52.971Z,4.15
2022-11-08T01:52:27.203Z,4.30
2022-11-08T01:55:05.287Z,8.43
2022-11-08T01:57:38.153Z,3.67
2022-11-08T02:00:07.544Z,6.28
2022-11-08T02:02:37.092Z,6.20
2022-11-08T02:05:06.454Z,5.90
2022-11-08T02:07:34.446Z,4.00
2022-11-08T02:10:03.121Z,5.25
2022-11-08T02:12:30.384Z,4.00
2022-11-08T02:14:57.222Z,6.60
2022-11-08T02:17:24.043Z,3.78
2022-11-08T02:19:51.027Z,6.68
2022-11-08T02:22:25.690Z,4.68
2022-11-08T02:24:54.112Z,4.93
2022-11-08T02:27:20.926Z,5.05
2022-11-08T02:29:47.659Z,5.40
2022-11-08T02:32:14.401Z,6.13
2022-11-08T02:34:44.932Z,7.57
2022-11-08T02:37:14.531Z,5.43
2022-11-08T02:39:41.268Z,6.72
2022-11-08T02:42:13.360Z,4.03
2022-11-08T02:44:40.074Z,5.15
2022-11-08T02:47:07.009Z,7.03
2022-11-08T02:49:33.771Z,5.80
2022-11-08T02:52:00.510Z,6.75
2022-11-08T02:54:27.245Z,5.75
2022-11-08T02:56:53.958Z,5.03
2022-11-08T02:59:22.033Z,4.55
2022-11-08T03:01:48.903Z,4.88
2022-11-08T03:04:15.710Z,6.13
2022-11-08T03:06:42.399Z,3.47
2022-11-08T03:09:09.199Z,6.07
2022-11-08T03:11:35.933Z,6.70
2022-11-08T03:14:02.777Z,5.60
2022-11-08T03:16:30.952Z,6.28
2022-11-08T03:18:57.691Z,6.53
2022-11-08T03:21:24.430Z,9.88
2022-11-08T03:23:51.144Z,6.13
2022-11-08T03:26:17.839Z,6.47
2022-11-08T03:28:44.582Z,4.65
2022-11-08T03:31:11.312Z,5.22
2022-11-08T03:33:39.430Z,5.38
2022-11-08T03:36:06.418Z,5.70
2022-11-08T03:38:33.257Z,4.40
2022-11-08T03:40:59.968Z,5.80
2022-11-08T03:43:26.807Z,4.35
2022-11-08T03:45:53.568Z,10.38
2022-11-08T03:48:20.713Z,5.13
2022-11-08T03:50:49.368Z,7.05
2022-11-08T03:53:16.070Z,3.13
2022-11-08T03:55:42.764Z,6.07
2022-11-08T03:58:09.517Z,4.63
2022-11-08T04:00:36.229Z,5.57
2022-11-08T04:03:04.075Z,6.53
2022-11-08T04:05:31.575Z,7.97
2022-11-08T04:08:00.169Z,7.65
2022-11-08T04:10:26.893Z,3.85
2022-11-08T04:12:53.664Z,5.70
2022-11-08T04:15:22.601Z,4.55
2022-11-08T04:17:50.817Z,5.45
2022-11-08T04:20:17.533Z,6.10
2022-11-08T04:22:44.227Z,5.00
2022-11-08T04:25:12.421Z,4.72
2022-11-08T04:27:39.136Z,4.75
2022-11-08T04:30:06.877Z,5.63
2022-11-08T04:32:33.598Z,5.05
2022-11-08T04:35:00.307Z,4.90
2022-11-08T04:37:26.998Z,5.20
2022-11-08T04:39:53.718Z,4.55
2022-11-08T04:42:21.782Z,2.70
2022-11-08T04:44:48.503Z,9.98
2022-11-08T04:47:15.217Z,5.07
2022-11-08T04:49:41.941Z,5.93
2022-11-08T04:52:08.635Z,5.15
2022-11-08T04:54:35.326Z,6.53
2022-11-08T04:57:02.032Z,5.47
2022-11-08T04:59:30.331Z,5.13
2022-11-08T05:01:57.075Z,5.72
2022-11-08T05:04:23.875Z,7.93
2022-11-08T05:06:50.586Z,8.93
2022-11-08T05:09:17.430Z,6.40
2022-11-08T05:11:44.324Z,5.78
2022-11-08T05:14:11.059Z,3.90
2022-11-08T05:16:39.179Z,6.43
2022-11-08T05:19:10.480Z,7.07
2022-11-08T05:21:39.687Z,4.47
2022-11-08T05:24:08.738Z,4.65
2022-11-08T05:26:37.536Z,6.85
2022-11-08T05:29:04.663Z,6.85
2022-11-08T05:31:31.420Z,6.03
2022-11-08T05:33:59.507Z,7.43
2022-11-08T05:36:26.697Z,5.80
2022-11-08T05:38:53.468Z,6.05
2022-11-08T05:41:21.865Z,7.10
2022-11-08T05:43:50.175Z,9.32
2022-11-08T05:46:18.964Z,17.90
2022-11-08T05:48:46.705Z,17.73
2022-11-08T05:51:16.010Z,16.85
2022-11-08T05:53:43.054Z,15.73
2022-11-08T05:56:10.226Z,10.75
2022-11-08T05:58:37.280Z,9.77
2022-11-08T06:01:05.563Z,11.05
2022-11-08T06:03:32.620Z,12.27
2022-11-08T06:06:02.240Z,12.13
2022-11-08T06:08:30.550Z,10.80
2022-11-08T06:11:02.894Z,10.63
2022-11-08T06:13:30.003Z,10.25
2022-11-08T06:15:59.881Z,9.68
2022-11-08T06:18:26.821Z,10.40
2022-11-08T06:20:53.531Z,11.35
2022-11-08T06:23:20.534Z,9.90
2022-11-08T06:25:48.882Z,11.32
2022-11-08T06:28:15.619Z,10.32
2022-11-08T06:30:42.336Z,9.57
2022-11-08T06:33:09.054Z,11.38
2022-11-08T06:35:36.681Z,9.82
2022-11-08T06:38:08.999Z,8.05
2022-11-08T06:40:37.183Z,9.20
2022-11-08T06:43:05.332Z,11.27
2022-11-08T06:45:32.210Z,10.60
2022-11-08T06:48:01.236Z,11.43
2022-11-08T06:50:28.743Z,7.45
2022-11-08T06:52:56.239Z,10.45
2022-11-08T06:55:24.037Z,9.38
2022-11-08T06:57:50.795Z,10.52
2022-11-08T07:00:19.685Z,11.13
2022-11-08T07:02:52.191Z,10.52
2022-11-08T07:05:19.291Z,15.48
2022-11-08T07:07:46.007Z,12.75
2022-11-08T07:10:12.717Z,12.25
2022-11-08T07:12:39.433Z,10.15
2022-11-08T07:15:06.924Z,10.50
2022-11-08T07:17:38.654Z,11.23
2022-11-08T07:20:06.753Z,9.75
2022-11-08T07:22:33.473Z,7.78
2022-11-08T07:25:00.360Z,11.10
2022-11-08T07:27:27.799Z,10.40
2022-11-08T07:29:54.512Z,10.75
2022-11-08T07:32:21.228Z,11.00
2022-11-08T07:34:49.339Z,12.45
2022-11-08T07:37:16.040Z,8.55
2022-11-08T07:39:42.756Z,6.70
2022-11-08T07:42:09.460Z,4.63
2022-11-08T07:44:36.194Z,3.92
2022-11-08T07:47:03.033Z,5.50
2022-11-08T07:49:29.754Z,5.28
2022-11-08T07:51:57.816Z,5.38
2022-11-08T07:54:24.556Z,5.70
2022-11-08T07:56:51.329Z,2.80
2022-11-08T07:59:18.097Z,3.90
2022-11-08T08:01:44.844Z,6.18
2022-11-08T08:04:11.580Z,4.55
2022-11-08T08:06:38.332Z,4.43
2022-11-08T08:09:06.422Z,5.40
2022-11-08T08:11:34.046Z,5.57
2022-11-08T08:14:00.955Z,5.53
2022-11-08T08:16:27.651Z,3.50
2022-11-08T08:18:56.564Z,5.30
2022-11-08T08:21:23.646Z,4.18
2022-11-08T08:23:50.380Z,4.30
2022-11-08T08:26:18.497Z,4.13
2022-11-08T08:28:45.213Z,4.28
2022-11-08T08:31:12.130Z,6.45
2022-11-08T08:33:39.003Z,5.20
2022-11-08T08:36:06.583Z,3.53
2022-11-08T08:38:34.223Z,4.13
2022-11-08T08:41:01.809Z,4.65
2022-11-08T08:43:30.873Z,4.32
2022-11-08T08:45:59.335Z,3.53
2022-11-08T08:48:26.043Z,2.70
2022-11-08T08:50:52.791Z,2.75
2022-11-08T08:53:19.803Z,3.53
2022-11-08T08:55:46.951Z,3.92
2022-11-08T08:58:14.098Z,2.70
2022-11-08T09:03:29.556Z,3.33
2022-11-08T09:05:57.431Z,2.88
2022-11-08T09:08:24.392Z,5.55
2022-11-08T09:10:53.846Z,3.60
2022-11-08T09:13:20.824Z,2.28
2022-11-08T09:15:49.537Z,3.38
2022-11-08T09:18:16.326Z,3.00
2022-11-08T09:20:43.214Z,2.50
2022-11-08T09:23:10.659Z,3.40
2022-11-08T09:25:37.480Z,2.80
2022-11-08T09:28:04.559Z,8.50
2022-11-08T09:30:31.378Z,3.97
2022-11-08T09:33:01.155Z,2.97
2022-11-08T09:35:28.884Z,4.63
2022-11-08T09:37:55.822Z,2.47
2022-11-08T09:40:30.171Z,2.00
2022-11-08T09:43:06.711Z,3.35
2022-11-08T09:45:41.618Z,1.98
2022-11-08T09:48:21.720Z,2.33
2022-11-08T09:50:51.698Z,3.53
2022-11-08T09:53:25.699Z,2.35
2022-11-08T09:55:56.812Z,2.85
2022-11-08T09:58:31.687Z,6.30
2022-11-08T10:00:59.285Z,2.40
2022-11-08T10:03:28.429Z,3.53
2022-11-08T10:06:10.748Z,2.30
2022-11-08T10:08:42.186Z,3.25
2022-11-08T10:11:20.643Z,2.33
2022-11-08T10:13:59.150Z,2.17
2022-11-08T10:16:33.005Z,2.63
2022-11-08T10:19:14.093Z,1.45
2022-11-08T10:21:54.678Z,1.88
2022-11-08T10:24:31.753Z,1.73
2022-11-08T10:27:00.188Z,4.13
2022-11-08T10:29:31.995Z,3.03
2022-11-08T10:32:03.372Z,2.20
2022-11-08T10:34:38.872Z,2.05
2022-11-08T10:37:09.109Z,2.83
2022-11-08T10:39:42.188Z,3.38
2022-11-08T10:42:13.684Z,2.90
2022-11-08T10:44:41.613Z,1.83
2022-11-08T10:47:15.232Z,2.97
2022-11-08T10:49:44.142Z,7.75
2022-11-08T10:52:22.645Z,3.45
2022-11-08T10:54:50.982Z,1.95
2022-11-08T10:57:23.675Z,3.55
2022-11-08T10:59:51.658Z,1.55
2022-11-08T11:02:32.230Z,3.08
2022-11-08T11:05:27.249Z,1.95
2022-11-08T11:08:02.042Z,3.58
2022-11-08T11:10:30.978Z,1.92
2022-11-08T11:13:04.052Z,2.50
2022-11-08T11:15:32.461Z,1.92
2022-11-08T11:17:59.203Z,2.22
2022-11-08T11:20:27.724Z,2.75
2022-11-08T11:22:54.740Z,1.73
2022-11-08T11:25:23.828Z,1.77
2022-11-08T11:27:55.019Z,5.20
2022-11-08T11:30:31.117Z,2.40
2022-11-08T11:33:04.732Z,2.67
2022-11-08T11:35:42.703Z,6.18
2022-11-08T11:38:19.003Z,1.92
2022-11-08T11:40:46.998Z,1.85
2022-11-08T11:43:23.208Z,2.13
2022-11-08T11:45:52.922Z,2.60
2022-11-08T11:48:26.128Z,3.00
2022-11-08T11:50:54.284Z,3.58
2022-11-08T11:53:24.428Z,3.85
2022-11-08T11:56:24.424Z,2.58
2022-11-08T11:59:07.747Z,2.47
2022-11-08T12:01:49.439Z,2.88
2022-11-08T12:04:35.652Z,1.85
2022-11-08T12:07:09.774Z,2.05
2022-11-08T12:12:24.966Z,3.80
2022-11-08T12:15:00.186Z,3.72
2022-11-08T12:17:56.528Z,2.50
2022-11-08T12:20:41.474Z,4.15
2022-11-08T12:23:37.890Z,4.38
2022-11-08T12:26:13.749Z,2.40
2022-11-08T12:28:56.740Z,3.75
2022-11-08T12:31:30.084Z,2.42
2022-11-08T12:34:18.361Z,2.67
2022-11-08T12:36:53.526Z,3.00
2022-11-08T12:39:32.756Z,3.33
2022-11-08T12:42:12.604Z,3.05
2022-11-08T12:45:07.991Z,3.70
2022-11-08T12:47:39.247Z,6.57
2022-11-08T12:50:19.924Z,2.58
2022-11-08T12:53:10.357Z,4.20
2022-11-08T12:55:41.532Z,2.45
2022-11-08T12:58:22.041Z,3.33
2022-11-08T13:00:50.036Z,4.50
2022-11-08T13:03:36.227Z,3.85
2022-11-08T13:06:07.832Z,3.42
2022-11-08T13:08:43.922Z,3.08
2022-11-08T13:11:20.384Z,4.07
2022-11-08T13:13:50.418Z,4.55
2022-11-08T13:16:19.012Z,3.03
2022-11-08T13:18:48.260Z,3.17
2022-11-08T13:21:36.657Z,3.03
2022-11-08T13:24:43.971Z,3.78
2022-11-08T13:27:24.641Z,1.40
2022-11-08T13:29:52.365Z,3.00
2022-11-08T13:32:31.694Z,1.20
2022-11-08T13:35:04.306Z,2.05
2022-11-08T13:37:55.333Z,2.90
2022-11-08T13:40:29.213Z,3.38
2022-11-08T13:43:14.341Z,3.10
2022-11-08T13:45:41.254Z,1.65
2022-11-08T13:48:35.971Z,2.47
2022-11-08T13:51:29.680Z,3.10
2022-11-08T13:53:58.408Z,2.22
2022-11-08T13:56:50.024Z,4.43
2022-11-08T13:59:55.089Z,1.50
2022-11-08T14:02:37.763Z,4.50
2022-11-08T14:05:21.322Z,2.92
2022-11-08T14:07:56.232Z,6.18
2022-11-08T14:10:27.755Z,1.70
2022-11-08T14:13:02.671Z,2.63
2022-11-08T14:15:35.089Z,2.78
2022-11-08T14:18:06.601Z,4.28
2022-11-08T14:20:37.321Z,4.03
2022-11-08T14:23:14.761Z,2.90
2022-11-08T14:25:42.635Z,3.75
2022-11-08T14:28:22.117Z,5.85
2022-11-08T14:30:50.949Z,3.83
2022-11-08T14:33:19.713Z,2.40
2022-11-08T14:35:54.920Z,2.50
2022-11-08T14:38:21.739Z,3.70
2022-11-08T14:40:49.993Z,3.75
2022-11-08T14:43:17.050Z,4.22
2022-11-08T14:45:44.434Z,4.57
2022-11-08T14:48:21.311Z,6.90
2022-11-08T14:50:48.049Z,4.45
2022-11-08T14:53:23.570Z,3.85
2022-11-08T14:55:57.756Z,3.50
2022-11-08T15:00:54.011Z,3.00
2022-11-08T15:03:28.154Z,4.03
2022-11-08T15:08:27.235Z,6.80
2022-11-08T15:10:56.212Z,6.45
2022-11-08T15:13:23.375Z,12.63
2022-11-08T15:15:54.237Z,15.80
2022-11-08T15:18:28.257Z,9.35
2022-11-08T15:20:57.187Z,12.02
2022-11-08T15:23:31.501Z,8.75
2022-11-08T15:25:59.839Z,6.85
2022-11-08T15:28:32.276Z,4.68
2022-11-08T15:31:01.443Z,10.40
2022-11-08T15:33:34.664Z,6.60
2022-11-08T15:36:02.219Z,4.30
2022-11-08T15:38:32.299Z,15.23
2022-11-08T15:41:01.019Z,7.78
2022-11-08T15:43:40.337Z,8.73
2022-11-08T15:46:26.269Z,9.35
2022-11-08T15:48:58.816Z,8.02
2022-11-08T15:51:25.779Z,5.97
2022-11-08T15:53:52.502Z,7.93
2022-11-08T15:56:19.370Z,9.55
2022-11-08T15:58:46.355Z,5.82
2022-11-08T16:01:19.467Z,8.18
2022-11-08T16:03:46.744Z,8.88
2022-11-08T16:06:15.195Z,12.93
2022-11-08T16:08:42.257Z,12.38
2022-11-08T16:11:13.734Z,15.25
2022-11-08T16:13:40.566Z,17.40
2022-11-08T16:16:12.255Z,14.95
2022-11-08T16:18:39.560Z,19.58
2022-11-08T16:21:06.479Z,21.13
2022-11-08T16:23:34.544Z,14.88
2022-11-08T16:26:01.384Z,18.60
2022-11-08T16:28:29.841Z,17.85
2022-11-08T16:30:56.879Z,13.73
2022-11-08T16:33:25.338Z,13.48
2022-11-08T16:35:54.678Z,12.80
2022-11-08T16:38:24.393Z,14.38
2022-11-08T16:40:52.502Z,11.55
2022-11-08T16:43:19.211Z,12.45
2022-11-08T16:48:32.742Z,8.68
2022-11-08T16:51:02.929Z,8.77
2022-11-08T16:53:30.210Z,6.38
2022-11-08T16:55:58.272Z,10.70
2022-11-08T16:58:24.984Z,6.63
2022-11-08T17:00:52.363Z,10.00
2022-11-08T17:03:21.502Z,8.65
2022-11-08T17:05:50.461Z,9.00
2022-11-08T17:08:17.501Z,13.18
2022-11-08T17:10:44.503Z,18.35
2022-11-08T17:13:15.017Z,16.38
2022-11-08T17:15:42.377Z,13.15
2022-11-08T17:18:11.504Z,5.03
2022-11-08T17:20:38.216Z,8.45
2022-11-08T17:23:05.095Z,11.07
2022-11-08T17:25:31.823Z,11.88
2022-11-08T17:27:58.537Z,12.30
2022-11-08T17:30:27.093Z,10.40
2022-11-08T17:32:54.167Z,12.38
2022-11-08T17:35:48.631Z,16.58
2022-11-08T17:38:15.322Z,12.13
2022-11-08T17:40:42.003Z,14.02
2022-11-08T17:43:08.727Z,10.48
2022-11-08T17:45:36.780Z,19.30
2022-11-08T17:48:03.661Z,22.75
2022-11-08T17:50:30.535Z,12.07
2022-11-08T17:52:57.235Z,10.13
2022-11-08T17:55:23.935Z,7.97
2022-11-08T17:57:50.665Z,7.93
2022-11-08T18:00:17.770Z,10.23
2022-11-08T18:02:45.982Z,14.23
2022-11-08T18:05:12.674Z,12.82
2022-11-08T18:07:39.392Z,12.23
2022-11-08T18:10:06.826Z,6.15
2022-11-08T18:12:33.821Z,13.32
2022-11-08T18:15:00.540Z,13.65
2022-11-08T18:17:27.315Z,15.57
2022-11-08T18:19:55.380Z,14.07
2022-11-08T18:22:22.118Z,17.67
2022-11-08T18:24:50.205Z,14.52
2022-11-08T18:27:17.122Z,25.80
2022-11-08T18:29:44.063Z,24.42
2022-11-08T18:32:10.761Z,15.70
2022-11-08T18:34:37.501Z,20.95
2022-11-08T18:37:05.540Z,21.88
2022-11-08T18:39:32.307Z,19.88
2022-11-08T18:41:59.073Z,23.88
2022-11-08T18:44:25.829Z,16.98
2022-11-08T18:46:52.546Z,17.42
2022-11-08T18:49:19.402Z,17.60
2022-11-08T18:51:46.119Z,11.23
2022-11-08T18:54:14.175Z,10.95
2022-11-08T18:56:40.871Z,15.43
2022-11-08T18:59:07.583Z,16.95
2022-11-08T19:01:34.364Z,17.10
2022-11-08T19:04:01.109Z,12.02
2022-11-08T19:06:28.216Z,14.80
2022-11-08T19:08:55.173Z,9.85
2022-11-08T19:11:23.335Z,10.68
2022-11-08T19:13:50.038Z,8.48
2022-11-08T19:16:18.371Z,9.30
2022-11-08T19:18:45.892Z,9.95
2022-11-08T19:21:15.076Z,9.98
2022-11-08T19:23:41.961Z,10.40
2022-11-08T19:26:11.604Z,4.53
2022-11-08T19:28:40.992Z,7.60
2022-11-08T19:31:08.088Z,7.47
2022-11-08T19:33:36.568Z,10.90
2022-11-08T19:36:05.391Z,6.07
2022-11-08T19:38:32.975Z,8.18
2022-11-08T19:41:01.932Z,7.32
2022-11-08T19:43:29.811Z,7.43
2022-11-08T19:46:00.609Z,6.93
2022-11-08T19:48:27.293Z,11.82
2022-11-08T19:50:54.001Z,19.75
2022-11-08T19:53:20.737Z,14.63
2022-11-08T19:55:47.715Z,13.35
2022-11-08T19:58:14.461Z,4.85
2022-11-08T20:00:41.388Z,5.07
2022-11-08T20:03:09.429Z,9.43
2022-11-08T20:05:36.134Z,11.27
2022-11-08T20:08:02.852Z,14.07
2022-11-08T20:10:29.584Z,21.17
2022-11-08T20:12:56.305Z,21.33
2022-11-08T20:15:23.059Z,30.85
2022-11-08T20:17:49.934Z,32.47
2022-11-08T20:20:18.282Z,37.17
2022-11-08T20:22:48.091Z,33.13
2022-11-08T20:25:15.197Z,32.55
2022-11-08T20:27:41.885Z,37.03
2022-11-08T20:30:10.109Z,30.88
2022-11-08T20:32:36.816Z,24.92
2022-11-08T20:35:04.375Z,31.17
2022-11-08T20:37:32.520Z,25.95
2022-11-08T20:39:59.226Z,26.55
2022-11-08T20:42:25.959Z,24.65
2022-11-08T20:44:52.654Z,23.55
2022-11-08T20:47:19.888Z,23.98
2022-11-08T20:49:46.704Z,20.08
2022-11-08T20:52:13.400Z,21.58
2022-11-08T20:54:43.983Z,20.70
2022-11-08T20:57:10.857Z,21.60
2022-11-08T20:59:37.561Z,16.50
2022-11-08T21:02:04.674Z,21.65
2022-11-08T21:04:31.449Z,21.48
2022-11-08T21:07:59.535Z,19.08
2022-11-08T21:09:50.411Z,17.38
2022-11-08T21:12:18.531Z,22.98
2022-11-08T21:14:45.297Z,17.85
2022-11-08T21:17:27.162Z,21.88
2022-11-08T21:19:54.280Z,17.13
2022-11-08T21:22:21.505Z,12.23
2022-11-08T21:24:49.641Z,16.42
2022-11-08T21:27:16.986Z,13.30
2022-11-08T21:29:43.695Z,14.07
2022-11-08T21:32:10.379Z,13.02
2022-11-08T21:34:37.076Z,12.05
2022-11-08T21:37:03.767Z,16.52
2022-11-08T21:39:30.477Z,12.88
2022-11-08T21:41:58.548Z,12.50
2022-11-08T21:44:25.244Z,13.65
2022-11-08T21:46:51.930Z,19.15
2022-11-08T21:49:18.603Z,14.40
2022-11-08T21:51:45.285Z,23.55
2022-11-08T21:54:11.951Z,25.95
2022-11-08T21:56:38.644Z,18.23
2022-11-08T21:59:06.695Z,14.60
2022-11-08T22:01:33.439Z,12.05
2022-11-08T22:04:00.297Z,14.20
2022-11-08T22:06:27.361Z,17.10
2022-11-08T22:08:54.433Z,10.95
2022-11-08T22:11:21.293Z,9.85
2022-11-08T22:13:47.999Z,8.45
2022-11-08T22:16:16.054Z,12.18
2022-11-08T22:21:29.513Z,10.98
2022-11-08T22:23:56.193Z,13.65
2022-11-08T22:26:22.972Z,14.57
2022-11-08T22:28:49.721Z,10.73
2022-11-08T22:31:17.750Z,12.13
2022-11-08T22:33:44.428Z,9.50
2022-11-08T22:36:11.312Z,9.60
2022-11-08T22:38:38.242Z,9.77
2022-11-08T22:41:05.355Z,9.00
2022-11-08T22:43:33.028Z,9.63
2022-11-08T22:46:00.017Z,9.38
2022-11-08T22:48:28.060Z,9.23
2022-11-08T22:50:54.751Z,6.93
2022-11-08T22:53:21.657Z,6.07
2022-11-08T22:55:48.457Z,9.00
2022-11-08T22:58:15.151Z,11.55
2022-11-08T23:00:41.852Z,12.93
2022-11-08T23:03:08.580Z,9.10
2022-11-08T23:05:37.376Z,8.15
2022-11-08T23:08:04.400Z,7.47
2022-11-08T23:10:31.092Z,10.20
2022-11-08T23:12:57.780Z,10.50
2022-11-08T23:15:24.525Z,11.07
2022-11-08T23:17:51.202Z,10.68
2022-11-08T23:20:17.947Z,8.98
2022-11-08T23:22:45.987Z,6.90
2022-11-08T23:25:12.694Z,9.35
2022-11-08T23:27:39.394Z,8.15
2022-11-08T23:30:07.273Z,6.95
2022-11-08T23:32:34.676Z,11.38
2022-11-08T23:35:01.784Z,13.25
2022-11-08T23:37:29.335Z,9.48
2022-11-08T23:39:57.406Z,13.80
2022-11-08T23:42:24.181Z,8.73
2022-11-08T23:44:50.851Z,7.35
2022-11-08T23:47:17.538Z,9.50
2022-11-08T23:49:44.245Z,8.13
2022-11-08T23:52:10.959Z,6.72
2022-11-08T23:54:37.669Z,5.80
2022-11-08T23:57:05.755Z,5.90
2022-11-08T23:59:32.457Z,7.63
